createdAt,value
2022-10-21T00:04:29.768Z,97123.69
2022-10-21T00:09:50.336Z,97126.63
2022-10-21T00:15:11.571Z,97119.06
2022-10-21T00:20:34.736Z,97109.59
2022-10-21T00:25:59.111Z,97101.00
2022-10-21T00:31:19.789Z,97104.41
2022-10-21T00:36:40.345Z,97107.34
2022-10-21T00:42:01.068Z,97101.56
2022-10-21T00:47:22.684Z,97100.88
2022-10-21T00:52:43.699Z,97082.88
2022-10-21T00:58:05.195Z,97076.16
2022-10-21T01:03:28.342Z,97071.31
2022-10-21T01:08:50.004Z,97061.56
2022-10-21T01:14:22.671Z,97056.09
2022-10-21T01:20:15.818Z,97044.16
2022-10-21T01:26:05.951Z,97041.09
2022-10-21T01:31:35.539Z,97053.38
2022-10-21T01:37:18.976Z,97054.00
2022-10-21T01:42:49.028Z,97063.88
2022-10-21T01:48:16.711Z,97073.34
2022-10-21T01:54:13.965Z,97076.88
2022-10-21T01:59:35.604Z,97069.00
2022-10-21T02:04:59.479Z,97035.28
2022-10-21T02:10:20.991Z,97019.91
2022-10-21T02:15:43.361Z,97020.88
2022-10-21T02:21:13.301Z,97023.72
2022-10-21T02:26:34.220Z,97050.56
2022-10-21T02:31:57.760Z,97061.88
2022-10-21T02:37:36.060Z,97040.16
2022-10-21T02:43:06.729Z,97013.94
2022-10-21T02:48:27.826Z,97007.06
2022-10-21T02:53:48.795Z,96991.97
2022-10-21T02:59:10.276Z,96980.28
2022-10-21T03:04:30.629Z,96959.63
2022-10-21T03:09:51.293Z,96979.00
2022-10-21T03:15:11.813Z,96967.91
2022-10-21T03:20:32.364Z,96964.00
2022-10-21T03:25:53.157Z,96970.59
2022-10-21T03:31:13.826Z,96958.78
2022-10-21T03:36:34.532Z,96946.97
2022-10-21T03:41:55.156Z,96924.22
2022-10-21T03:47:15.738Z,96915.84
2022-10-21T03:52:38.715Z,96889.53
2022-10-21T03:57:59.586Z,96849.25
2022-10-21T04:03:20.329Z,96836.78
2022-10-21T04:08:40.805Z,96807.09
2022-10-21T04:14:01.389Z,96816.44
2022-10-21T04:19:21.821Z,96804.78
2022-10-21T04:24:42.459Z,96803.13
2022-10-21T04:30:03.065Z,96792.38
2022-10-21T04:35:23.623Z,96803.09
2022-10-21T04:40:44.154Z,96828.59
2022-10-21T04:46:07.560Z,96829.38
2022-10-21T04:56:56.284Z,96797.38
2022-10-21T05:02:18.526Z,96801.03
2022-10-21T05:07:41.316Z,96810.00
2022-10-21T05:13:02.118Z,96806.94
2022-10-21T05:18:22.804Z,96797.94
2022-10-21T05:23:43.401Z,96787.53
2022-10-21T05:29:04.085Z,96778.44
2022-10-21T05:34:24.709Z,96791.19
2022-10-21T05:39:45.286Z,96771.94
2022-10-21T05:45:06.798Z,96791.09
2022-10-21T05:50:27.608Z,96775.94
2022-10-21T05:56:14.595Z,96790.78
2022-10-21T06:01:35.328Z,96790.03
2022-10-21T06:12:22.555Z,96792.78
2022-10-21T06:17:43.592Z,96789.69
2022-10-21T06:23:04.191Z,96812.44
2022-10-21T06:28:25.398Z,96814.47
2022-10-21T06:33:45.923Z,96789.69
2022-10-21T06:39:07.857Z,96820.13
2022-10-21T06:44:29.195Z,96826.59
2022-10-21T06:49:49.955Z,96829.59
2022-10-21T06:55:11.954Z,96811.56
2022-10-21T07:00:32.868Z,96827.31
2022-10-21T07:06:00.495Z,96816.78
2022-10-21T07:11:22.231Z,96820.13
2022-10-21T07:16:43.112Z,96816.94
2022-10-21T07:22:03.808Z,96836.75
2022-10-21T07:27:24.548Z,96822.97
2022-10-21T07:32:45.312Z,96828.81
2022-10-21T07:38:06.284Z,96818.28
2022-10-21T07:43:27.176Z,96827.28
2022-10-21T07:48:48.736Z,96825.72
2022-10-21T07:54:09.763Z,96831.91
2022-10-21T07:59:30.753Z,96826.97
2022-10-21T08:04:54.864Z,96816.31
2022-10-21T08:10:16.411Z,96804.94
2022-10-21T08:15:42.659Z,96795.59
2022-10-21T08:21:04.914Z,96796.56
2022-10-21T08:26:25.844Z,96791.75
2022-10-21T08:31:48.534Z,96782.16
2022-10-21T08:37:09.518Z,96780.38
2022-10-21T08:42:30.356Z,96762.94
2022-10-21T08:47:55.224Z,96765.72
2022-10-21T08:53:24.663Z,96752.44
2022-10-21T08:58:48.351Z,96741.81
2022-10-21T09:04:31.993Z,96740.84
2022-10-21T09:09:59.463Z,96734.53
2022-10-21T09:15:39.978Z,96740.28
2022-10-21T09:21:21.445Z,96759.06
2022-10-21T09:26:51.201Z,96761.91
2022-10-21T09:32:12.153Z,96725.94
2022-10-21T09:37:35.411Z,96766.31
2022-10-21T09:43:02.177Z,96722.75
2022-10-21T09:49:06.918Z,96726.34
2022-10-21T09:54:26.647Z,96736.88
2022-10-21T09:59:51.908Z,96755.56
2022-10-21T10:05:40.597Z,96759.13
2022-10-21T10:11:03.640Z,96747.84
2022-10-21T10:16:29.716Z,96741.25
2022-10-21T10:22:12.258Z,96739.28
2022-10-21T10:27:33.231Z,96722.41
2022-10-21T10:32:56.361Z,96723.34
2022-10-21T10:38:37.971Z,96730.94
2022-10-21T10:43:58.543Z,96744.09
2022-10-21T10:49:22.545Z,96739.25
2022-10-21T10:54:44.017Z,96739.69
2022-10-21T11:00:18.155Z,96738.72
2022-10-21T11:05:52.049Z,96734.13
2022-10-21T11:11:41.612Z,96734.03
2022-10-21T11:17:13.401Z,96735.91
2022-10-21T11:22:53.029Z,96729.81
2022-10-21T11:28:26.140Z,96730.19
2022-10-21T11:34:13.468Z,96733.34
2022-10-21T11:39:55.063Z,96723.47
2022-10-21T11:45:15.962Z,96720.50
2022-10-21T11:50:53.262Z,96710.28
2022-10-21T11:56:49.207Z,96720.06
2022-10-21T12:02:25.296Z,96719.69
2022-10-21T12:08:05.683Z,96717.97
2022-10-21T12:13:29.912Z,96731.72
2022-10-21T12:18:54.187Z,96753.94
2022-10-21T12:24:39.211Z,96758.81
2022-10-21T12:30:05.671Z,96756.59
2022-10-21T12:35:40.424Z,96773.06
2022-10-21T12:41:40.580Z,96766.66
2022-10-21T12:47:04.641Z,96771.53
2022-10-21T12:52:25.552Z,96747.84
2022-10-21T12:57:46.726Z,96726.31
2022-10-21T13:03:22.191Z,96717.72
2022-10-21T13:08:55.362Z,96711.47
2022-10-21T13:14:16.123Z,96704.56
2022-10-21T13:19:37.036Z,96714.88
2022-10-21T13:24:57.715Z,96717.03
2022-10-21T13:30:29.314Z,96709.88
2022-10-21T13:36:00.583Z,96702.88
2022-10-21T13:41:30.923Z,96716.16
2022-10-21T13:46:51.770Z,96725.00
2022-10-21T13:52:13.240Z,96728.34
2022-10-21T13:57:36.195Z,96712.50
2022-10-21T14:03:02.452Z,96676.50
2022-10-21T14:08:26.420Z,96705.34
2022-10-21T14:13:49.292Z,96713.72
2022-10-21T14:19:18.399Z,96733.59
2022-10-21T14:24:47.053Z,96742.34
2022-10-21T14:30:10.215Z,96739.50
2022-10-21T14:35:32.043Z,96728.28
2022-10-21T14:41:05.569Z,96717.31
2022-10-21T14:46:26.481Z,96725.56
2022-10-21T14:51:47.189Z,96697.97
2022-10-21T14:57:21.762Z,96700.06
2022-10-21T15:02:43.518Z,96664.78
2022-10-21T15:08:19.871Z,96664.16
2022-10-21T15:13:59.294Z,96671.22
2022-10-21T15:19:50.749Z,96675.91
2022-10-21T15:25:19.440Z,96680.38
2022-10-21T15:30:42.229Z,96679.28
2022-10-21T15:36:05.581Z,96672.84
2022-10-21T15:41:28.732Z,96666.31
2022-10-21T15:46:50.832Z,96667.38
2022-10-21T15:52:13.342Z,96659.59
2022-10-21T15:57:34.377Z,96667.03
2022-10-21T16:02:55.020Z,96670.44
2022-10-21T16:08:15.925Z,96688.53
2022-10-21T16:13:36.555Z,96666.41
2022-10-21T16:18:57.432Z,96678.53
2022-10-21T16:24:18.276Z,96671.84
2022-10-21T16:29:39.813Z,96669.13
2022-10-21T16:35:00.674Z,96660.91
2022-10-21T16:40:25.454Z,96674.63
2022-10-21T16:45:46.131Z,96687.53
2022-10-21T16:51:07.260Z,96708.53
2022-10-21T17:01:53.770Z,96719.91
2022-10-21T17:07:14.381Z,96707.31
2022-10-21T17:12:37.641Z,96733.91
2022-10-21T17:17:59.284Z,96748.31
2022-10-21T17:23:20.114Z,96731.97
2022-10-21T17:28:40.749Z,96739.91
2022-10-21T17:34:07.487Z,96759.53
2022-10-21T17:39:28.596Z,96761.03
2022-10-21T17:44:49.663Z,96747.75
2022-10-21T17:50:11.075Z,96755.94
2022-10-21T17:55:32.229Z,96765.81
2022-10-21T18:00:56.674Z,96761.81
2022-10-21T18:06:17.952Z,96754.53
2022-10-21T18:11:38.568Z,96764.72
2022-10-21T18:16:59.148Z,96744.03
2022-10-21T18:22:21.226Z,96735.97
2022-10-21T18:27:42.149Z,96734.31
2022-10-21T18:33:02.737Z,96723.91
2022-10-21T18:38:24.545Z,96714.31
2022-10-21T18:43:47.925Z,96721.41
2022-10-21T18:49:12.635Z,96711.53
2022-10-21T18:54:33.240Z,96702.22
2022-10-21T18:59:54.605Z,96706.03
2022-10-21T19:05:15.415Z,96701.78
2022-10-21T19:10:36.187Z,96710.53
2022-10-21T19:15:56.791Z,96716.13
2022-10-21T19:21:19.132Z,96710.25
2022-10-21T19:26:41.549Z,96704.66
2022-10-21T19:32:02.440Z,96702.31
2022-10-21T19:37:23.049Z,96700.91
2022-10-21T19:42:43.557Z,96711.34
2022-10-21T19:48:04.350Z,96737.25
2022-10-21T19:53:26.814Z,96735.06
2022-10-21T19:58:47.593Z,96749.28
2022-10-21T20:04:08.238Z,96748.34
2022-10-21T20:09:28.979Z,96746.16
2022-10-21T20:14:49.608Z,96742.59
2022-10-21T20:20:10.386Z,96727.25
2022-10-21T20:25:31.161Z,96721.09
2022-10-21T20:30:56.331Z,96724.81
2022-10-21T20:36:23.679Z,96726.59
2022-10-21T20:41:44.753Z,96718.50
2022-10-21T20:47:05.451Z,96721.09
2022-10-21T20:52:26.446Z,96729.88
2022-10-21T20:57:47.328Z,96724.41
2022-10-21T21:03:07.937Z,96719.06
2022-10-21T21:08:29.730Z,96721.13
2022-10-21T21:13:50.543Z,96716.22
2022-10-21T21:19:13.170Z,96714.41
2022-10-21T21:24:34.060Z,96706.59
2022-10-21T21:29:54.728Z,96697.97
2022-10-21T21:35:17.675Z,96711.13
2022-10-21T21:40:38.626Z,96712.91
2022-10-21T21:46:00.047Z,96708.81
2022-10-21T21:51:21.722Z,96727.31
2022-10-21T21:56:42.352Z,96713.75
2022-10-21T22:02:03.540Z,96731.00
2022-10-21T22:07:24.190Z,96726.34
2022-10-21T22:12:45.525Z,96708.66
2022-10-21T22:18:07.002Z,96710.47
2022-10-21T22:23:28.514Z,96708.81
2022-10-21T22:28:49.639Z,96707.28
2022-10-21T22:34:12.053Z,96702.63
2022-10-21T22:39:32.921Z,96691.38
2022-10-21T22:44:53.590Z,96684.66
2022-10-21T22:50:14.175Z,96674.94
2022-10-21T22:55:34.994Z,96666.44
2022-10-21T23:06:21.179Z,96669.72
2022-10-21T23:11:41.933Z,96666.41
2022-10-21T23:17:02.597Z,96653.38
2022-10-21T23:22:23.482Z,96642.31
2022-10-21T23:27:44.187Z,96639.31
2022-10-21T23:33:04.876Z,96636.81
2022-10-21T23:38:25.629Z,96622.84
2022-10-21T23:43:46.207Z,96628.72
2022-10-21T23:49:06.974Z,96630.66
2022-10-21T23:54:27.917Z,96640.66
2022-10-21T23:59:48.440Z,96633.13
